LFHP/LPY METAR and TAF weather

Enter ICAO airport designator
Station Type Date Time Source
LFHP METAR 2019/08/24 17:30 UTC NOAA

LFHP 241730Z AUTO VRB02KT CAVOK 28/09 Q1020


Station Type Date Time Source
LFHP Decoded METAR 2019/08/24 17:30 UTC NOAA

Station name not available
Aug 24, 2019 - 01:30 PM EDT / 2019.08.24 1730 UTC
Wind: Variable at 2 MPH (2 KT):0
Visibility: greater than 7 mile(s):0
Temperature: 82 F (28 C)
Dew Point: 48 F (9 C)
Relative Humidity: 30%
Pressure (altimeter): 30.12 in. Hg (1020 hPa)
ob: LFHP 241730Z AUTO VRB02KT CAVOK 28/09 Q1020
cycle: 17

Station Type Date Time Source
LFHP TAF UTC NOAA

Error!

Example: see airport list